Nantucket Memorial Airport Nantucket US
ICAO: KACK
IATA: ACK
Category: Medium
Scheduled Services: Yes

Elevation: 47 ft
TransAlt. 18000 ft.

Airport Communications:
CAPE APP/DEP:126.1
ATIS:127.5
CLNC DEL:119.375
CTAF:118.3
GND:121.7
BRIDGEPORT RDO:116.2
TWR:118.3
UNICOM:122.95

KACK Zoom In..

Runways:

(A) RW 06 length 6303 ft width 150 ft
ILS 109.10 / hdg 61

(B) RW 12 length 2696 ft width 50 ft
---- / hdg 123

(C) RW 15 length 4500 ft width 100 ft
---- / hdg 151

(D) RW 24 length 6303 ft width 150 ft
ILS 109.10 / hdg 241

(E) RW 30 length 2696 ft width 50 ft
---- / hdg 303

(F) RW 33 length 4500 ft width 100 ft
---- / hdg 331

Location; KACK
Day. 22 / Time. 01.53 Zulu
* Altimeter: 30.17
* Temperature: 10° c. 50°f.
* Wind from: 220° Speed 05 kn.
Dewpoint: 10° c.
Visibility: 10 Statute Miles.
Clouds: Clear (automated report).

KACK 220153Z 22005KT 10SM CLR 10/10 A3017 RMK AO2 SLP217 T01000100


Wind From 220°
Speed 05 kn.

 
 
jpsmedia.com for Web Design SOUNDCLOUD worldairports.se 2018   terms of use